createdAt,value
2023-02-11T00:01:23.137Z,23.20
2023-02-11T00:03:51.013Z,24.47
2023-02-11T00:06:20.348Z,25.50
2023-02-11T00:08:48.570Z,24.90
2023-02-11T00:11:17.810Z,24.57
2023-02-11T00:13:46.571Z,22.50
2023-02-11T00:16:16.314Z,24.93
2023-02-11T00:18:44.404Z,26.30
2023-02-11T00:21:14.847Z,22.87
2023-02-11T00:23:44.116Z,23.93
2023-02-11T00:26:16.239Z,22.63
2023-02-11T00:28:44.733Z,22.13
2023-02-11T00:31:13.329Z,23.80
2023-02-11T00:33:41.315Z,23.20
2023-02-11T00:36:12.728Z,22.87
2023-02-11T00:38:40.556Z,24.33
2023-02-11T00:41:09.747Z,23.10
2023-02-11T00:43:37.624Z,22.40
2023-02-11T00:46:05.739Z,23.60
2023-02-11T00:48:34.269Z,22.20
2023-02-11T00:51:02.163Z,23.30
2023-02-11T00:53:29.988Z,22.57
2023-02-11T00:55:57.876Z,20.50
2023-02-11T00:58:27.054Z,23.20
2023-02-11T01:00:55.642Z,22.70
2023-02-11T01:03:23.535Z,23.33
2023-02-11T01:05:51.859Z,22.20
2023-02-11T01:08:19.952Z,22.57
2023-02-11T01:10:55.578Z,22.67
2023-02-11T01:13:23.726Z,23.07
2023-02-11T01:15:53.356Z,24.27
2023-02-11T01:18:21.475Z,23.07
2023-02-11T01:20:49.329Z,23.47
2023-02-11T01:23:17.140Z,22.60
2023-02-11T01:25:45.041Z,22.53
2023-02-11T01:28:18.215Z,21.33
2023-02-11T01:30:46.131Z,22.90
2023-02-11T01:33:15.344Z,20.97
2023-02-11T01:35:43.658Z,23.17
2023-02-11T01:38:16.486Z,21.87
2023-02-11T01:40:48.627Z,21.67
2023-02-11T01:43:16.499Z,22.60
2023-02-11T01:46:24.463Z,22.13
2023-02-11T01:48:57.010Z,21.63
2023-02-11T01:51:28.623Z,23.60
2023-02-11T01:54:15.476Z,21.67
2023-02-11T01:57:05.461Z,20.67
2023-02-11T01:59:37.004Z,19.00
2023-02-11T02:02:10.987Z,18.77
2023-02-11T02:04:46.787Z,18.73
2023-02-11T02:07:21.116Z,20.13
2023-02-11T02:09:56.386Z,18.87
2023-02-11T02:12:24.218Z,18.87
2023-02-11T02:14:52.070Z,19.10
2023-02-11T02:17:29.178Z,19.73
2023-02-11T02:20:27.710Z,18.53
2023-02-11T02:23:19.419Z,18.47
2023-02-11T02:26:26.756Z,18.53
2023-02-11T02:29:23.229Z,19.33
2023-02-11T02:32:16.640Z,19.57
2023-02-11T02:34:52.083Z,19.63
2023-02-11T02:37:25.468Z,19.87
2023-02-11T02:39:53.304Z,21.00
2023-02-11T02:42:22.341Z,19.73
2023-02-11T02:44:50.788Z,19.70
2023-02-11T02:47:20.245Z,20.80
2023-02-11T02:49:48.266Z,20.40
2023-02-11T02:52:30.475Z,20.53
2023-02-11T02:55:12.407Z,20.47
2023-02-11T02:57:50.834Z,20.47
2023-02-11T03:00:27.513Z,19.30
2023-02-11T03:03:09.512Z,21.57
2023-02-11T03:05:44.484Z,21.00
2023-02-11T03:08:18.312Z,21.00
2023-02-11T03:10:48.303Z,21.13
2023-02-11T03:13:18.761Z,20.27
2023-02-11T03:15:50.410Z,19.33
2023-02-11T03:18:23.254Z,20.40
2023-02-11T03:20:54.344Z,21.40
2023-02-11T03:23:27.978Z,21.47
2023-02-11T03:25:59.121Z,19.47
2023-02-11T03:28:33.695Z,20.40
2023-02-11T03:31:11.752Z,21.00
2023-02-11T03:33:49.531Z,21.30
2023-02-11T03:36:23.886Z,18.77
2023-02-11T03:38:56.884Z,20.20
2023-02-11T03:41:26.265Z,19.90
2023-02-11T03:43:57.896Z,21.80
2023-02-11T03:46:31.946Z,19.27
2023-02-11T03:49:05.825Z,20.10
2023-02-11T03:51:34.570Z,20.47
2023-02-11T03:54:05.024Z,20.57
2023-02-11T03:56:37.222Z,18.97
2023-02-11T03:59:05.174Z,21.10
2023-02-11T04:01:33.151Z,19.90
2023-02-11T04:04:02.363Z,21.63
2023-02-11T04:06:30.201Z,20.00
2023-02-11T04:08:58.024Z,19.87
2023-02-11T04:11:25.851Z,22.17
2023-02-11T04:13:53.667Z,21.67
2023-02-11T04:16:21.776Z,21.40
2023-02-11T04:18:49.716Z,21.03
2023-02-11T04:21:18.890Z,21.30
2023-02-11T04:23:46.696Z,20.77
2023-02-11T04:26:14.512Z,21.60
2023-02-11T04:28:42.330Z,20.37
2023-02-11T04:31:12.115Z,21.57
2023-02-11T04:33:39.991Z,20.30
2023-02-11T04:36:08.756Z,20.93
2023-02-11T04:38:37.941Z,19.67
2023-02-11T04:41:06.062Z,21.30
2023-02-11T04:43:33.898Z,21.50
2023-02-11T04:46:01.759Z,19.97
2023-02-11T04:48:29.587Z,18.70
2023-02-11T04:50:57.575Z,20.17
2023-02-11T04:53:25.401Z,20.70
2023-02-11T04:55:54.608Z,18.43
2023-02-11T04:58:22.443Z,20.03
2023-02-11T05:00:50.322Z,19.40
2023-02-11T05:03:18.358Z,21.80
2023-02-11T05:05:46.200Z,19.13
2023-02-11T05:08:14.302Z,20.73
2023-02-11T05:10:46.496Z,18.00
2023-02-11T05:13:15.697Z,18.07
2023-02-11T05:15:43.578Z,19.90
2023-02-11T05:18:11.391Z,17.10
2023-02-11T05:20:39.713Z,17.47
2023-02-11T05:23:07.528Z,18.30
2023-02-11T05:25:35.416Z,17.77
2023-02-11T05:28:03.516Z,17.97
2023-02-11T05:30:33.280Z,17.97
2023-02-11T05:33:01.195Z,16.57
2023-02-11T05:35:29.063Z,16.27
2023-02-11T05:37:56.880Z,17.20
2023-02-11T05:40:24.738Z,20.83
2023-02-11T05:42:52.554Z,20.17
2023-02-11T05:45:20.392Z,19.87
2023-02-11T05:47:49.572Z,18.70
2023-02-11T05:50:17.489Z,20.27
2023-02-11T05:52:45.312Z,20.77
2023-02-11T05:55:13.322Z,18.63
2023-02-11T05:57:41.177Z,18.60
2023-02-11T06:00:10.775Z,17.47
2023-02-11T06:02:38.654Z,18.13
2023-02-11T06:05:08.878Z,17.87
2023-02-11T06:07:36.784Z,17.77
2023-02-11T06:10:04.888Z,16.80
2023-02-11T06:12:32.755Z,16.70
2023-02-11T06:15:00.613Z,16.90
2023-02-11T06:17:31.692Z,17.70
2023-02-11T06:19:59.920Z,19.20
2023-02-11T06:22:29.421Z,19.23
2023-02-11T06:25:01.590Z,21.37
2023-02-11T06:27:30.335Z,20.23
2023-02-11T06:29:58.284Z,20.63
2023-02-11T06:32:43.274Z,21.77
2023-02-11T06:35:12.708Z,22.00
2023-02-11T06:37:42.106Z,21.70
2023-02-11T06:40:10.402Z,21.10
2023-02-11T06:42:39.727Z,22.27
2023-02-11T06:45:09.443Z,21.70
2023-02-11T06:47:37.558Z,21.07
2023-02-11T06:50:06.300Z,22.30
2023-02-11T06:52:34.699Z,21.63
2023-02-11T06:55:03.902Z,22.73
2023-02-11T06:57:32.700Z,23.23
2023-02-11T07:00:00.534Z,22.43
2023-02-11T07:02:28.547Z,24.00
2023-02-11T07:04:56.405Z,22.63
2023-02-11T07:07:24.283Z,22.00
2023-02-11T07:09:52.110Z,21.47
2023-02-11T07:12:21.310Z,21.87
2023-02-11T07:14:49.125Z,22.60
2023-02-11T07:17:17.030Z,22.50
2023-02-11T07:19:45.042Z,23.90
2023-02-11T07:22:12.914Z,22.47
2023-02-11T07:24:40.812Z,21.53
2023-02-11T07:27:08.631Z,22.10
2023-02-11T07:29:37.793Z,23.33
2023-02-11T07:32:07.054Z,21.40
2023-02-11T07:34:35.207Z,22.50
2023-02-11T07:37:03.200Z,24.30
2023-02-11T07:39:31.084Z,23.30
2023-02-11T07:41:58.928Z,23.17
2023-02-11T07:44:26.740Z,23.63
2023-02-11T07:46:55.942Z,24.17
2023-02-11T07:49:23.793Z,24.57
2023-02-11T07:51:51.996Z,23.73
2023-02-11T07:54:19.866Z,23.63
2023-02-11T07:56:47.710Z,24.03
2023-02-11T07:59:15.566Z,24.60
2023-02-11T08:01:43.434Z,25.90
2023-02-11T08:04:12.678Z,25.60
2023-02-11T08:06:43.267Z,23.70
2023-02-11T08:09:15.797Z,26.40
2023-02-11T08:11:44.284Z,24.63
2023-02-11T08:14:13.011Z,24.37
2023-02-11T08:16:41.148Z,25.90
2023-02-11T08:19:13.594Z,25.73
2023-02-11T08:21:42.108Z,23.03
2023-02-11T08:24:10.188Z,24.37
2023-02-11T08:26:38.608Z,23.47
2023-02-11T08:29:11.332Z,23.77
2023-02-11T08:31:41.472Z,22.97
2023-02-11T08:34:11.364Z,24.13
2023-02-11T08:36:44.699Z,22.83
2023-02-11T08:39:19.645Z,22.60
2023-02-11T08:41:49.128Z,22.47
2023-02-11T08:44:17.081Z,23.53
2023-02-11T08:46:44.944Z,21.43
2023-02-11T08:49:12.826Z,22.60
2023-02-11T08:51:42.005Z,21.10
2023-02-11T08:54:10.326Z,22.63
2023-02-11T08:56:38.990Z,22.43
2023-02-11T08:59:09.095Z,22.30
2023-02-11T09:01:37.018Z,22.90
2023-02-11T09:04:04.937Z,20.73
2023-02-11T09:06:33.263Z,20.90
2023-02-11T09:09:02.632Z,21.30
2023-02-11T09:11:32.540Z,21.60
2023-02-11T09:14:01.092Z,21.10
2023-02-11T09:16:31.026Z,21.43
2023-02-11T09:19:00.495Z,20.87
2023-02-11T09:21:28.992Z,22.30
2023-02-11T09:23:57.457Z,22.60
2023-02-11T09:26:28.598Z,23.13
2023-02-11T09:28:57.958Z,23.70
2023-02-11T09:31:28.113Z,24.00
2023-02-11T09:33:59.023Z,25.50
2023-02-11T09:36:29.664Z,22.57
2023-02-11T09:38:59.409Z,22.77
2023-02-11T09:41:38.359Z,24.67
2023-02-11T09:44:08.178Z,25.23
2023-02-11T09:46:40.949Z,23.60
2023-02-11T09:49:12.949Z,25.40
2023-02-11T09:51:44.474Z,28.03
2023-02-11T09:54:20.337Z,26.20
2023-02-11T09:56:49.530Z,26.20
2023-02-11T09:59:18.714Z,24.20
2023-02-11T10:01:50.822Z,25.30
2023-02-11T10:04:28.366Z,25.37
2023-02-11T10:06:58.601Z,27.57
2023-02-11T10:09:45.298Z,25.97
2023-02-11T10:12:24.204Z,26.37
2023-02-11T10:15:07.241Z,25.07
2023-02-11T10:17:46.400Z,27.70
2023-02-11T10:20:24.764Z,26.47
2023-02-11T10:22:55.672Z,25.97
2023-02-11T10:25:26.285Z,27.17
2023-02-11T10:27:58.584Z,26.10
2023-02-11T10:30:31.915Z,27.40
2023-02-11T10:33:03.820Z,27.23
2023-02-11T10:35:33.270Z,29.20
2023-02-11T10:38:01.672Z,28.23
2023-02-11T10:40:31.587Z,27.57
2023-02-11T10:43:04.927Z,29.50
2023-02-11T10:45:35.483Z,27.47
2023-02-11T10:48:06.303Z,27.23
2023-02-11T10:50:38.560Z,28.10
2023-02-11T10:53:15.226Z,28.70
2023-02-11T10:56:07.709Z,25.60
2023-02-11T10:58:44.467Z,28.10
2023-02-11T11:01:23.964Z,29.37
2023-02-11T11:03:53.788Z,30.40
2023-02-11T11:06:31.247Z,30.10
2023-02-11T11:08:59.417Z,28.83
2023-02-11T11:11:28.009Z,29.57
2023-02-11T11:14:01.450Z,31.07
2023-02-11T11:16:30.466Z,29.40
2023-02-11T11:19:20.399Z,30.77
2023-02-11T11:21:50.637Z,30.17
2023-02-11T11:24:20.757Z,30.70
2023-02-11T11:26:50.480Z,30.93
2023-02-11T11:29:21.112Z,30.10
2023-02-11T11:31:54.175Z,28.37
2023-02-11T11:34:29.683Z,28.20
2023-02-11T11:36:59.334Z,26.87
2023-02-11T11:39:30.385Z,27.03
2023-02-11T11:42:00.157Z,26.73
2023-02-11T11:44:32.707Z,26.90
2023-02-11T11:47:23.190Z,26.07
2023-02-11T11:50:06.711Z,25.23
2023-02-11T11:52:40.633Z,28.20
2023-02-11T11:55:15.810Z,25.80
2023-02-11T11:57:43.666Z,25.50
2023-02-11T12:00:18.340Z,25.10
2023-02-11T12:03:26.119Z,27.60
2023-02-11T12:06:08.712Z,26.40
2023-02-11T12:08:45.526Z,26.30
2023-02-11T12:11:22.195Z,27.57
2023-02-11T12:14:07.424Z,25.33
2023-02-11T12:16:49.120Z,24.03
2023-02-11T12:19:51.018Z,24.67
2023-02-11T12:22:32.119Z,24.53
2023-02-11T12:25:21.580Z,24.70
2023-02-11T12:27:55.915Z,25.43
2023-02-11T12:30:38.414Z,24.40
2023-02-11T12:33:17.852Z,23.57
2023-02-11T12:35:56.854Z,25.23
2023-02-11T12:38:43.255Z,24.37
2023-02-11T12:42:01.450Z,25.30
2023-02-11T12:44:39.644Z,26.00
2023-02-11T12:47:19.976Z,25.60
2023-02-11T12:50:18.721Z,26.27
2023-02-11T12:52:59.356Z,24.47
2023-02-11T12:55:30.315Z,23.40
2023-02-11T12:58:00.142Z,24.13
2023-02-11T13:00:44.893Z,22.47
2023-02-11T13:03:16.874Z,23.60
2023-02-11T13:05:50.158Z,23.73
2023-02-11T13:08:22.051Z,22.90
2023-02-11T13:10:54.790Z,23.10
2023-02-11T13:13:26.190Z,23.43
2023-02-11T13:15:59.568Z,21.53
2023-02-11T13:18:40.634Z,22.87
2023-02-11T13:21:32.011Z,22.03
2023-02-11T13:24:08.184Z,22.03
2023-02-11T13:26:46.847Z,23.53
2023-02-11T13:29:24.087Z,22.83
2023-02-11T13:31:56.305Z,24.90
2023-02-11T13:34:26.240Z,24.63
2023-02-11T13:36:57.925Z,24.17
2023-02-11T13:39:26.054Z,22.13
2023-02-11T13:42:04.062Z,22.10
2023-02-11T13:44:35.400Z,20.90
2023-02-11T13:47:06.217Z,21.20
2023-02-11T13:49:40.361Z,19.70
2023-02-11T13:52:26.852Z,19.33
2023-02-11T13:54:57.571Z,18.90
2023-02-11T13:57:38.788Z,21.63
2023-02-11T14:00:36.389Z,19.67
2023-02-11T14:03:41.454Z,18.47
2023-02-11T14:06:35.520Z,18.90
2023-02-11T14:09:25.580Z,18.10
2023-02-11T14:11:57.151Z,19.57
2023-02-11T14:14:26.446Z,19.10
2023-02-11T14:17:30.875Z,19.77
2023-02-11T14:20:00.041Z,18.93
2023-02-11T14:22:30.075Z,17.80
2023-02-11T14:25:01.728Z,17.30
2023-02-11T14:27:43.911Z,16.03
2023-02-11T14:30:22.559Z,16.03
2023-02-11T14:33:09.101Z,16.33
2023-02-11T14:35:44.209Z,13.73
2023-02-11T14:38:23.529Z,12.90
2023-02-11T14:41:00.834Z,14.20
2023-02-11T14:43:32.689Z,12.97
2023-02-11T14:46:02.372Z,13.73
2023-02-11T14:48:32.437Z,13.73
2023-02-11T14:51:02.922Z,14.00
2023-02-11T14:53:33.300Z,15.10
2023-02-11T14:56:02.558Z,13.40
2023-02-11T14:58:31.978Z,12.53
2023-02-11T15:01:01.128Z,13.20
2023-02-11T15:03:37.637Z,13.30
2023-02-11T15:06:08.746Z,12.90
2023-02-11T15:08:39.145Z,12.23
2023-02-11T15:11:14.308Z,10.90
2023-02-11T15:13:47.262Z,9.50
2023-02-11T15:16:18.511Z,10.60
2023-02-11T15:18:49.165Z,9.43
2023-02-11T15:21:23.016Z,8.10
2023-02-11T15:23:58.833Z,8.80
2023-02-11T15:26:28.795Z,9.93
2023-02-11T15:28:56.911Z,11.23
2023-02-11T15:31:26.512Z,10.23
2023-02-11T15:33:55.239Z,11.67
2023-02-11T15:36:28.697Z,10.80
2023-02-11T15:39:31.064Z,10.27
2023-02-11T15:42:17.670Z,11.93
2023-02-11T15:44:45.876Z,10.33
2023-02-11T15:47:17.556Z,10.10
2023-02-11T15:49:46.871Z,10.13
2023-02-11T15:52:15.975Z,9.90
2023-02-11T15:54:47.461Z,10.80
2023-02-11T15:57:17.833Z,11.00
2023-02-11T15:59:50.592Z,10.20
2023-02-11T16:02:22.166Z,9.90
2023-02-11T16:04:55.747Z,8.80
2023-02-11T16:07:41.370Z,8.90
2023-02-11T16:10:20.864Z,9.67
2023-02-11T16:13:19.686Z,8.90
2023-02-11T16:15:52.396Z,10.40
2023-02-11T16:18:38.363Z,10.13
2023-02-11T16:21:08.625Z,11.53
2023-02-11T16:23:39.109Z,10.93
2023-02-11T16:26:11.015Z,10.30
2023-02-11T16:28:41.936Z,11.20
2023-02-11T16:31:10.005Z,11.07
2023-02-11T16:33:37.852Z,14.37
2023-02-11T16:36:13.158Z,14.17
2023-02-11T16:38:41.071Z,15.13
2023-02-11T16:41:11.742Z,17.77
2023-02-11T16:43:40.991Z,19.47
2023-02-11T16:46:09.300Z,22.50
2023-02-11T16:48:38.631Z,19.47
2023-02-11T16:51:09.184Z,17.67
2023-02-11T16:53:37.005Z,15.80
2023-02-11T16:56:05.321Z,17.03
2023-02-11T16:58:33.672Z,17.20
2023-02-11T17:01:02.947Z,17.73
2023-02-11T17:03:35.570Z,17.53
2023-02-11T17:06:05.659Z,14.50
2023-02-11T17:08:33.756Z,17.03
2023-02-11T17:11:01.574Z,17.33
2023-02-11T17:13:29.369Z,17.87
2023-02-11T17:15:57.233Z,17.50
2023-02-11T17:18:26.377Z,16.53
2023-02-11T17:20:54.368Z,17.17
2023-02-11T17:23:22.165Z,14.80
2023-02-11T17:25:56.819Z,16.80
2023-02-11T17:28:24.671Z,16.00
2023-02-11T17:30:52.551Z,15.77
2023-02-11T17:33:20.397Z,15.90
2023-02-11T17:35:49.935Z,15.47
2023-02-11T17:38:18.162Z,15.87
2023-02-11T17:40:45.992Z,14.60
2023-02-11T17:43:13.880Z,15.13
2023-02-11T17:45:42.624Z,14.93
2023-02-11T17:48:10.491Z,13.80
2023-02-11T17:50:38.304Z,14.40
2023-02-11T17:53:07.434Z,15.70
2023-02-11T17:55:35.338Z,15.47
2023-02-11T17:58:04.036Z,15.40
2023-02-11T18:00:32.276Z,19.47
2023-02-11T18:03:02.840Z,21.90
2023-02-11T18:05:35.135Z,23.47
2023-02-11T18:08:03.096Z,21.80
2023-02-11T18:10:33.511Z,19.70
2023-02-11T18:13:01.875Z,18.07
2023-02-11T18:15:29.660Z,16.63
2023-02-11T18:17:57.470Z,18.50
2023-02-11T18:20:25.284Z,19.97
2023-02-11T18:22:53.103Z,19.90
2023-02-11T18:25:20.989Z,28.07
2023-02-11T18:27:50.136Z,24.87
2023-02-11T18:30:19.756Z,19.10
2023-02-11T18:32:47.575Z,20.13
2023-02-11T18:35:16.040Z,19.80
2023-02-11T18:37:44.049Z,19.93
2023-02-11T18:40:12.941Z,17.23
2023-02-11T18:42:40.900Z,16.13
2023-02-11T18:45:14.893Z,17.53
2023-02-11T18:47:42.730Z,18.83
2023-02-11T18:50:13.712Z,17.23
2023-02-11T18:52:41.523Z,15.90
2023-02-11T18:55:10.123Z,16.20
2023-02-11T18:57:37.947Z,17.53
2023-02-11T19:00:06.930Z,17.93
2023-02-11T19:02:36.840Z,19.60
2023-02-11T19:05:06.426Z,19.30
2023-02-11T19:07:34.241Z,18.27
2023-02-11T19:10:02.035Z,17.83
2023-02-11T19:12:29.849Z,19.27
2023-02-11T19:14:59.108Z,18.53
2023-02-11T19:17:27.173Z,19.60
2023-02-11T19:19:56.307Z,22.47
2023-02-11T19:22:24.115Z,19.43
2023-02-11T19:24:51.902Z,20.47
2023-02-11T19:27:19.687Z,21.27
2023-02-11T19:29:47.655Z,22.30
2023-02-11T19:32:16.268Z,23.70
2023-02-11T19:34:44.085Z,22.43
2023-02-11T19:37:13.757Z,21.17
2023-02-11T19:39:42.138Z,22.43
2023-02-11T19:42:10.466Z,29.40
2023-02-11T19:44:38.277Z,27.57
2023-02-11T19:47:07.578Z,26.47
2023-02-11T19:49:35.371Z,24.83
2023-02-11T19:52:03.383Z,23.10
2023-02-11T19:54:32.513Z,25.70
2023-02-11T19:57:00.313Z,22.13
2023-02-11T19:59:28.092Z,21.93
2023-02-11T20:01:55.911Z,21.47
2023-02-11T20:04:25.038Z,21.37
2023-02-11T20:06:52.898Z,20.77
2023-02-11T20:09:21.703Z,19.20
2023-02-11T20:11:51.049Z,22.60
2023-02-11T20:14:19.196Z,23.17
2023-02-11T20:16:49.822Z,22.43
2023-02-11T20:19:19.234Z,19.67
2023-02-11T20:21:48.607Z,18.43
2023-02-11T20:24:16.735Z,19.20
2023-02-11T20:26:45.765Z,18.37
2023-02-11T20:29:15.352Z,19.00
2023-02-11T20:31:43.771Z,18.77
2023-02-11T20:34:12.243Z,16.70
2023-02-11T20:36:40.685Z,17.00
2023-02-11T20:39:09.117Z,17.50
2023-02-11T20:41:39.736Z,17.10
2023-02-11T20:44:09.308Z,16.90
2023-02-11T20:46:40.835Z,15.93
2023-02-11T20:49:10.384Z,16.40
2023-02-11T20:51:38.201Z,15.73
2023-02-11T20:54:07.040Z,15.63
2023-02-11T20:56:36.867Z,15.77
2023-02-11T20:59:05.772Z,15.63
2023-02-11T21:01:35.726Z,16.03
2023-02-11T21:04:08.332Z,14.53
2023-02-11T21:06:38.370Z,15.67
2023-02-11T21:09:07.452Z,14.27
2023-02-11T21:11:35.928Z,15.20
2023-02-11T21:14:04.033Z,16.47
2023-02-11T21:16:32.366Z,15.93
2023-02-11T21:19:02.791Z,16.03
2023-02-11T21:21:32.750Z,15.20
2023-02-11T21:24:00.549Z,14.60
2023-02-11T21:26:28.430Z,15.73
2023-02-11T21:28:56.213Z,17.07
2023-02-11T21:31:26.048Z,15.10
2023-02-11T21:33:55.109Z,16.77
2023-02-11T21:36:23.346Z,15.23
2023-02-11T21:38:52.895Z,15.30
2023-02-11T21:41:22.623Z,14.17
2023-02-11T21:43:50.953Z,14.30
2023-02-11T21:46:19.677Z,14.30
2023-02-11T21:48:48.285Z,15.30
2023-02-11T21:51:17.534Z,15.80
2023-02-11T21:53:45.651Z,14.43
2023-02-11T21:56:16.821Z,15.30
2023-02-11T21:58:45.653Z,14.47
2023-02-11T22:01:14.508Z,15.70
2023-02-11T22:03:42.792Z,13.80
2023-02-11T22:06:12.149Z,13.83
2023-02-11T22:08:40.860Z,15.37
2023-02-11T22:11:11.071Z,16.50
2023-02-11T22:13:40.998Z,14.60
2023-02-11T22:16:11.038Z,14.43
2023-02-11T22:18:39.541Z,15.53
2023-02-11T22:21:09.484Z,15.10
2023-02-11T22:23:38.696Z,16.07
2023-02-11T22:26:08.755Z,15.37
2023-02-11T22:28:38.781Z,15.40
2023-02-11T22:31:08.979Z,15.83
2023-02-11T22:33:36.948Z,15.60
2023-02-11T22:36:07.076Z,15.30
2023-02-11T22:38:35.686Z,15.60
2023-02-11T22:41:07.493Z,14.70
2023-02-11T22:43:35.426Z,15.80
2023-02-11T22:46:03.882Z,15.80
2023-02-11T22:48:34.195Z,16.03
2023-02-11T22:51:05.815Z,16.20
2023-02-11T22:53:33.626Z,17.40
2023-02-11T22:56:04.712Z,14.93
2023-02-11T22:58:32.713Z,15.60
2023-02-11T23:01:00.653Z,14.83
2023-02-11T23:03:28.733Z,15.77
2023-02-11T23:05:59.152Z,15.27
2023-02-11T23:08:27.900Z,15.20
2023-02-11T23:10:56.207Z,16.20
2023-02-11T23:13:24.046Z,14.20
2023-02-11T23:15:51.886Z,15.30
2023-02-11T23:18:19.682Z,15.47
2023-02-11T23:20:47.531Z,15.60
2023-02-11T23:23:16.699Z,15.13
2023-02-11T23:25:45.634Z,15.40
2023-02-11T23:28:13.789Z,15.90
2023-02-11T23:30:42.256Z,15.23
2023-02-11T23:33:10.096Z,13.90
2023-02-11T23:35:38.154Z,15.27
2023-02-11T23:38:05.984Z,14.57
2023-02-11T23:40:35.220Z,14.90
2023-02-11T23:43:03.124Z,14.07
2023-02-11T23:45:31.310Z,15.77
2023-02-11T23:47:59.191Z,13.27
2023-02-11T23:50:26.987Z,13.23
2023-02-11T23:52:54.808Z,14.47
2023-02-11T23:55:22.634Z,14.80
2023-02-11T23:57:51.788Z,14.20
